Time;durP1;ratioP1;P1;durP2;ratioP2;P2;SDS_P1;SDS_P2;PMS_P1;PMS_P2;Temp;Humidity;BMP_temperature;BMP_pressure;BME280_temperature;BME280_humidity;BME280_pressure;Samples;Min_cycle;Max_cycle;Signal;HPM_P1;HPM_P2
2022/09/27 00:02:16;;;;;;;4.70;0.93;;;10.90;99.90;;;;;;5046094;28;20032;-75
2022/09/27 00:04:41;;;;;;;1.42;0.68;;;10.90;99.90;;;;;;5039259;28;20059;-75
2022/09/27 00:07:09;;;;;;;3.83;1.25;;;10.90;99.90;;;;;;5051648;28;20503;-75
2022/09/27 00:09:35;;;;;;;2.13;1.13;;;10.90;99.90;;;;;;5048228;28;20049;-75
2022/09/27 00:12:00;;;;;;;1.75;1.00;;;10.90;99.90;;;;;;5047798;28;20739;-75
2022/09/27 00:14:26;;;;;;;2.78;2.05;;;10.80;99.90;;;;;;5042665;28;20045;-75
2022/09/27 00:16:52;;;;;;;1.77;1.00;;;10.90;99.90;;;;;;5040959;28;20465;-75
2022/09/27 00:19:20;;;;;;;3.90;1.20;;;10.80;99.90;;;;;;5049223;28;20147;-75
2022/09/27 00:21:47;;;;;;;4.88;1.83;;;10.80;99.90;;;;;;5042757;28;20051;-75
2022/09/27 00:24:14;;;;;;;5.07;1.30;;;10.80;99.90;;;;;;5045596;28;20141;-75
2022/09/27 00:26:40;;;;;;;1.17;0.80;;;10.70;99.90;;;;;;5049037;28;20045;-75
2022/09/27 00:29:06;;;;;;;2.92;0.95;;;10.70;99.90;;;;;;5050506;28;20054;-75
2022/09/27 00:31:32;;;;;;;2.55;0.98;;;10.70;99.90;;;;;;5044120;28;20048;-75
2022/09/27 00:34:01;;;;;;;4.15;1.00;;;10.70;99.90;;;;;;5049251;28;20096;-75
2022/09/27 00:36:28;;;;;;;3.30;1.20;;;10.70;99.90;;;;;;5046840;28;20068;-75
2022/09/27 00:38:54;;;;;;;2.78;1.20;;;10.70;99.90;;;;;;5045553;28;20082;-74
2022/09/27 00:41:27;;;;;;;4.53;1.10;;;10.70;99.90;;;;;;5049147;28;20045;-75
2022/09/27 00:43:58;;;;;;;4.18;1.00;;;10.60;99.90;;;;;;5048756;28;20115;-75
2022/09/27 00:46:47;;;;;;;7.68;1.40;;;10.60;99.90;;;;;;5044496;28;20353;-74
2022/09/27 00:49:31;;;;;;;2.08;1.00;;;10.60;99.90;;;;;;5039925;28;20052;-75
2022/09/27 00:52:04;;;;;;;1.25;0.85;;;10.60;99.90;;;;;;5054726;28;20076;-75
2022/09/27 00:54:33;;;;;;;3.80;0.98;;;10.60;99.90;;;;;;5056440;28;20048;-75
2022/09/27 00:57:00;;;;;;;1.60;1.00;;;10.50;99.90;;;;;;5043673;28;20049;-75
2022/09/27 00:59:32;;;;;;;3.30;0.98;;;9.80;99.90;;;;;;5055963;28;20141;-75
2022/09/27 01:01:59;;;;;;;1.38;0.75;;;10.50;99.90;;;;;;5042734;28;20052;-74
2022/09/27 01:04:28;;;;;;;1.58;0.85;;;10.50;99.90;;;;;;5048737;28;20060;-75
2022/09/27 01:06:54;;;;;;;2.35;0.88;;;10.50;99.90;;;;;;5037994;28;20055;-75
2022/09/27 01:09:21;;;;;;;1.02;0.88;;;10.50;99.90;;;;;;5050005;28;20144;-75
2022/09/27 01:12:01;;;;;;;1.85;0.88;;;10.50;99.90;;;;;;5042202;28;20163;-75
2022/09/27 01:14:29;;;;;;;1.77;1.00;;;10.50;99.90;;;;;;5049293;28;20056;-75
2022/09/27 01:17:07;;;;;;;1.77;0.80;;;10.50;99.90;;;;;;5047763;28;20134;-75
2022/09/27 01:20:05;;;;;;;2.63;1.20;;;10.50;99.90;;;;;;5049102;28;20057;-75
2022/09/27 01:22:42;;;;;;;2.03;0.85;;;10.50;99.90;;;;;;5048782;28;20045;-75
2022/09/27 01:25:48;;;;;;;3.95;1.15;;;10.40;99.90;;;;;;5042490;28;20055;-75
2022/09/27 01:28:26;;;;;;;2.60;1.00;;;10.40;99.90;;;;;;5041862;28;20124;-75
2022/09/27 01:31:04;;;;;;;3.05;1.10;;;10.40;99.90;;;;;;5044186;28;20608;-75
2022/09/27 01:33:48;;;;;;;2.15;0.80;;;10.40;99.90;;;;;;5051182;28;20048;-75
2022/09/27 01:36:25;;;;;;;3.55;0.95;;;10.30;99.90;;;;;;5049056;28;20061;-75
2022/09/27 01:39:29;;;;;;;2.42;1.08;;;10.30;99.90;;;;;;5048805;28;20048;-75
2022/09/27 01:42:00;;;;;;;;;;;10.40;99.90;;;;;;5045030;28;20116;-75
2022/09/27 01:44:28;;;;;;;2.72;1.25;;;10.30;99.90;;;;;;5059186;28;19924;-75
2022/09/27 01:46:59;;;;;;;2.08;1.00;;;10.30;99.90;;;;;;5055536;28;20052;-75
2022/09/27 01:49:41;;;;;;;9.63;1.40;;;10.40;99.90;;;;;;5054394;28;20056;-78
2022/09/27 01:52:09;;;;;;;3.78;1.00;;;10.40;99.90;;;;;;5044613;28;20079;-78
2022/09/27 01:54:43;;;;;;;3.05;1.42;;;10.40;99.90;;;;;;5050473;28;20045;-78
2022/09/27 01:57:12;;;;;;;1.00;0.90;;;10.40;99.90;;;;;;5047983;28;20146;-77
2022/09/27 01:59:48;;;;;;;2.58;1.40;;;10.50;99.90;;;;;;5054011;28;20040;-78
2022/09/27 02:02:16;;;;;;;3.25;1.30;;;10.40;99.90;;;;;;5042799;28;20037;-78
2022/09/27 02:04:45;;;;;;;2.97;1.05;;;10.50;99.90;;;;;;5051485;28;20046;-77
2022/09/27 02:07:19;;;;;;;2.05;0.93;;;10.50;99.90;;;;;;5056291;28;20098;-80
2022/09/27 02:09:55;;;;;;;3.17;1.25;;;10.40;99.90;;;;;;5051124;28;20040;-78
2022/09/27 02:12:25;;;;;;;4.45;1.30;;;10.50;99.90;;;;;;5049010;28;20041;-77
2022/09/27 02:15:17;;;;;;;1.88;1.23;;;10.50;99.90;;;;;;5048425;28;20144;-78
2022/09/27 02:17:52;;;;;;;2.15;1.05;;;10.50;99.90;;;;;;5041785;28;20064;-79
2022/09/27 02:20:34;;;;;;;2.67;0.82;;;10.40;99.90;;;;;;5053765;28;20299;-78
2022/09/27 02:23:40;;;;;;;2.63;0.98;;;10.40;99.90;;;;;;5049423;28;20056;-77
2022/09/27 02:26:28;;;;;;;4.63;0.88;;;10.40;99.90;;;;;;5049155;28;20140;-78
2022/09/27 02:29:04;;;;;;;2.63;0.70;;;10.40;99.90;;;;;;5042381;28;21460;-79
2022/09/27 02:31:30;;;;;;;3.78;0.60;;;10.40;99.90;;;;;;5054872;28;20186;-80
2022/09/27 02:34:01;;;;;;;1.10;0.60;;;10.40;99.90;;;;;;5048189;28;20098;-77
2022/09/27 02:36:28;;;;;;;1.60;0.68;;;10.40;99.90;;;;;;5056292;28;20076;-77
2022/09/27 02:38:54;;;;;;;1.23;0.93;;;10.30;99.90;;;;;;5054083;28;20080;-80
2022/09/27 02:41:21;;;;;;;1.38;0.90;;;10.30;99.90;;;;;;5042948;28;20529;-77
2022/09/27 02:43:58;;;;;;;0.68;0.65;;;10.40;99.90;;;;;;5053258;28;20128;-77
2022/09/27 02:46:26;;;;;;;3.20;0.65;;;10.30;99.90;;;;;;5043910;28;20056;-78
2022/09/27 02:49:12;;;;;;;2.80;0.70;;;10.30;99.90;;;;;;5057182;28;20068;-78
2022/09/27 02:51:57;;;;;;;1.52;0.70;;;10.30;99.90;;;;;;5052895;28;20060;-77
2022/09/27 02:54:57;;;;;;;2.17;1.00;;;10.30;99.90;;;;;;5046605;28;20048;-77
2022/09/27 02:57:33;;;;;;;3.05;1.02;;;10.30;99.90;;;;;;5049447;28;20067;-77
2022/09/27 03:00:05;;;;;;;2.38;0.82;;;10.30;99.90;;;;;;5053454;28;20052;-77
2022/09/27 03:02:55;;;;;;;1.38;0.73;;;10.30;99.90;;;;;;5056973;28;20374;-77
2022/09/27 03:05:26;;;;;;;1.08;0.90;;;10.40;99.90;;;;;;5050419;28;20055;-78
2022/09/27 03:07:52;;;;;;;2.58;0.88;;;10.30;99.90;;;;;;5046494;28;20045;-78
2022/09/27 03:10:21;;;;;;;5.88;0.98;;;10.30;99.90;;;;;;5047393;28;20052;-78
2022/09/27 03:12:47;;;;;;;1.98;0.80;;;10.30;99.90;;;;;;5043330;28;20091;-78
2022/09/27 03:15:13;;;;;;;2.55;0.88;;;10.30;99.90;;;;;;5040342;28;20514;-77
2022/09/27 03:17:39;;;;;;;2.35;1.05;;;10.30;99.90;;;;;;5054189;28;20049;-78
2022/09/27 03:20:05;;;;;;;1.73;1.05;;;10.20;99.90;;;;;;5046405;28;20838;-78
2022/09/27 03:22:31;;;;;;;4.03;0.90;;;10.20;99.90;;;;;;5045683;28;20048;-77
2022/09/27 03:24:57;;;;;;;2.08;1.02;;;10.20;99.90;;;;;;5042169;28;20051;-78
2022/09/27 03:27:23;;;;;;;3.80;0.85;;;10.20;99.90;;;;;;5051559;28;20119;-77
2022/09/27 03:29:49;;;;;;;1.83;0.85;;;10.10;99.90;;;;;;5081131;28;20468;-77
2022/09/27 03:32:15;;;;;;;0.82;0.63;;;10.10;99.90;;;;;;5045278;28;20050;-77
2022/09/27 03:34:40;;;;;;;1.70;0.80;;;10.00;99.90;;;;;;5044251;28;20053;-78
2022/09/27 03:37:07;;;;;;;3.38;1.00;;;10.00;99.90;;;;;;5044720;28;20059;-78
2022/09/27 03:39:33;;;;;;;2.20;0.80;;;10.00;99.90;;;;;;5043232;28;20049;-77
2022/09/27 03:41:59;;;;;;;1.00;1.00;;;10.00;99.90;;;;;;5046619;28;20834;-80
2022/09/27 03:44:24;;;;;;;1.88;1.15;;;10.00;99.90;;;;;;5049142;28;20045;-79
2022/09/27 03:46:50;;;;;;;1.35;0.75;;;9.90;99.90;;;;;;5040703;28;20155;-79
2022/09/27 03:49:16;;;;;;;3.35;0.90;;;9.90;99.90;;;;;;5045628;28;20059;-78
2022/09/27 03:51:42;;;;;;;1.27;0.75;;;9.90;99.90;;;;;;5044914;28;20478;-79
2022/09/27 03:54:08;;;;;;;1.83;0.90;;;9.90;99.90;;;;;;5046978;28;20044;-78
2022/09/27 03:56:34;;;;;;;0.98;0.77;;;9.90;99.90;;;;;;5046275;28;20053;-79
2022/09/27 03:59:00;;;;;;;2.10;0.90;;;9.80;99.90;;;;;;5048711;28;20064;-80
2022/09/27 04:01:26;;;;;;;1.70;0.95;;;9.90;99.90;;;;;;5045506;28;20067;-76
2022/09/27 04:03:52;;;;;;;1.23;0.70;;;9.80;99.90;;;;;;5042518;28;20051;-77
2022/09/27 04:06:19;;;;;;;4.50;1.10;;;9.80;99.90;;;;;;5052075;28;20120;-79
2022/09/27 04:08:45;;;;;;;1.33;0.68;;;9.80;99.90;;;;;;5045529;28;20053;-78
2022/09/27 04:11:11;;;;;;;3.60;0.90;;;9.80;99.90;;;;;;5042045;28;20049;-78
2022/09/27 04:13:37;;;;;;;1.98;0.68;;;9.80;99.90;;;;;;5044580;28;20064;-81
2022/09/27 04:16:02;;;;;;;3.40;0.80;;;9.90;99.90;;;;;;5048398;28;20054;-79
2022/09/27 04:18:28;;;;;;;2.05;0.93;;;9.90;99.90;;;;;;5040919;28;20051;-79
2022/09/27 04:20:54;;;;;;;5.32;1.52;;;9.90;99.90;;;;;;5050944;28;20054;-79
2022/09/27 04:23:20;;;;;;;1.35;0.80;;;9.90;99.90;;;;;;5049826;28;20122;-81
2022/09/27 04:25:46;;;;;;;6.07;0.90;;;9.90;99.90;;;;;;5041319;28;20052;-78
2022/09/27 04:28:11;;;;;;;2.58;1.95;;;10.00;99.90;;;;;;5048029;28;20048;-79
2022/09/27 04:30:37;;;;;;;2.05;0.90;;;9.90;99.90;;;;;;5039422;28;20056;-78
2022/09/27 04:33:03;;;;;;;3.88;0.82;;;9.90;99.90;;;;;;5041325;28;20098;-80
2022/09/27 04:38:14;;;;;;;1.45;1.10;;;9.90;99.90;;;;;;5050258;28;20045;-77
2022/09/27 04:40:40;;;;;;;2.15;0.82;;;9.90;99.90;;;;;;5046964;28;20915;-80
2022/09/27 04:43:06;;;;;;;2.10;0.77;;;9.90;99.90;;;;;;5042030;28;20046;-81
2022/09/27 04:45:32;;;;;;;2.55;0.70;;;9.90;99.90;;;;;;5044622;28;20104;-80
2022/09/27 04:47:58;;;;;;;2.40;0.82;;;9.90;99.90;;;;;;5049115;28;20171;-78
2022/09/27 04:50:24;;;;;;;1.42;0.90;;;9.90;99.90;;;;;;5052117;28;20045;-79
2022/09/27 04:52:51;;;;;;;3.53;0.75;;;9.90;99.90;;;;;;5049171;28;20064;-79
2022/09/27 04:55:18;;;;;;;3.55;1.10;;;9.90;99.90;;;;;;5053215;28;20133;-78
2022/09/27 04:57:43;;;;;;;3.70;1.00;;;9.90;99.90;;;;;;5049689;28;20057;-77
2022/09/27 05:00:10;;;;;;;1.38;1.00;;;9.90;99.90;;;;;;5041758;28;20080;-79
2022/09/27 05:02:35;;;;;;;0.70;0.70;;;9.90;99.90;;;;;;5049368;28;20044;-77
2022/09/27 05:05:01;;;;;;;2.03;0.90;;;9.90;99.90;;;;;;5052907;28;20129;-78
2022/09/27 05:07:28;;;;;;;2.00;1.02;;;9.90;99.90;;;;;;5047148;28;20047;-78
2022/09/27 05:09:55;;;;;;;1.77;0.70;;;9.90;99.90;;;;;;5050639;28;20057;-77
2022/09/27 05:12:21;;;;;;;2.28;0.90;;;9.90;99.90;;;;;;5083376;28;20607;-77
2022/09/27 05:14:47;;;;;;;3.25;0.68;;;10.10;99.90;;;;;;5047177;28;20048;-77
2022/09/27 05:17:13;;;;;;;4.82;0.73;;;10.00;99.90;;;;;;5045772;28;20078;-76
2022/09/27 05:19:38;;;;;;;1.13;0.57;;;10.00;99.90;;;;;;5045681;28;20044;-79
2022/09/27 05:22:05;;;;;;;3.17;0.88;;;10.00;99.90;;;;;;5047007;28;20078;-79
2022/09/27 05:24:32;;;;;;;3.17;0.77;;;9.90;99.90;;;;;;5047261;28;21055;-80
2022/09/27 05:27:01;;;;;;;3.03;0.70;;;9.90;99.90;;;;;;5048936;28;20147;-80
2022/09/27 05:29:27;;;;;;;1.95;0.50;;;9.90;99.90;;;;;;5049498;28;20048;-79
2022/09/27 05:31:53;;;;;;;3.58;0.60;;;9.90;99.90;;;;;;5048935;28;20060;-78
2022/09/27 05:34:19;;;;;;;3.97;0.88;;;9.90;99.90;;;;;;5047425;28;20044;-79
2022/09/27 05:36:48;;;;;;;2.25;0.80;;;9.90;99.90;;;;;;5041516;28;20083;-79
2022/09/27 05:39:18;;;;;;;1.33;0.60;;;9.90;99.90;;;;;;5055054;28;20155;-77
2022/09/27 05:41:49;;;;;;;1.70;0.73;;;9.90;99.90;;;;;;5049294;28;20059;-77
2022/09/27 05:44:15;;;;;;;2.97;0.45;;;9.90;99.90;;;;;;5040521;28;20123;-77
2022/09/27 05:46:41;;;;;;;1.35;0.60;;;9.90;99.90;;;;;;5054926;28;20130;-77
2022/09/27 05:49:07;;;;;;;1.98;0.98;;;9.90;99.90;;;;;;5055388;28;20068;-79
2022/09/27 05:51:33;;;;;;;1.90;0.75;;;9.90;99.90;;;;;;5052268;28;20070;-80
2022/09/27 05:53:59;;;;;;;3.45;0.80;;;9.90;99.90;;;;;;5042036;28;20181;-78
2022/09/27 05:56:24;;;;;;;3.25;0.55;;;10.00;99.90;;;;;;5053051;28;20044;-78
2022/09/27 05:58:50;;;;;;;2.15;0.90;;;10.00;99.90;;;;;;5044253;28;20091;-78
2022/09/27 06:01:17;;;;;;;3.33;1.33;;;9.90;99.90;;;;;;5041335;28;20052;-79
2022/09/27 06:03:43;;;;;;;16.45;6.32;;;10.00;99.90;;;;;;5043853;28;20053;-79
2022/09/27 06:06:09;;;;;;;3.60;0.80;;;10.00;99.90;;;;;;5041765;28;20055;-78
2022/09/27 06:08:38;;;;;;;2.05;0.75;;;10.00;99.90;;;;;;5044659;28;20099;-78
2022/09/27 06:11:11;;;;;;;1.10;0.70;;;10.10;99.90;;;;;;5043752;28;20810;-80
2022/09/27 06:13:38;;;;;;;3.88;0.80;;;10.10;99.90;;;;;;5044764;28;20877;-79
2022/09/27 06:16:05;;;;;;;2.67;0.70;;;10.10;99.90;;;;;;5046133;28;20063;-80
2022/09/27 06:18:30;;;;;;;1.15;0.77;;;10.10;99.90;;;;;;5054705;28;20064;-79
2022/09/27 06:20:59;;;;;;;3.50;1.38;;;10.20;99.90;;;;;;5041030;28;20045;-79
2022/09/27 06:23:25;;;;;;;2.65;0.82;;;10.20;99.90;;;;;;5051126;28;20407;-78
2022/09/27 06:25:53;;;;;;;0.75;0.60;;;10.20;99.90;;;;;;5048745;28;20052;-78
2022/09/27 06:28:19;;;;;;;2.58;0.93;;;10.20;99.90;;;;;;5038492;28;20083;-79
2022/09/27 06:30:49;;;;;;;4.13;1.27;;;10.20;99.90;;;;;;5047563;28;20236;-78
2022/09/27 06:33:18;;;;;;;3.97;1.17;;;10.20;99.90;;;;;;5044386;28;20127;-78
2022/09/27 06:35:45;;;;;;;1.38;0.88;;;10.20;99.90;;;;;;5044442;28;20197;-78
2022/09/27 06:38:15;;;;;;;2.17;0.70;;;10.30;99.90;;;;;;5053181;28;20119;-80
2022/09/27 06:40:45;;;;;;;3.83;0.90;;;10.20;99.90;;;;;;5050508;28;20114;-80
2022/09/27 06:43:16;;;;;;;1.40;1.30;;;10.30;99.90;;;;;;5044937;28;20461;-79
2022/09/27 06:45:42;;;;;;;1.75;0.90;;;10.30;99.90;;;;;;5046353;28;20067;-78
2022/09/27 06:48:11;;;;;;;4.47;1.42;;;10.40;99.90;;;;;;5044957;28;20096;-79
2022/09/27 06:50:38;;;;;;;1.40;0.90;;;10.30;99.90;;;;;;5048849;28;20070;-79
2022/09/27 06:53:07;;;;;;;1.58;1.33;;;10.40;99.90;;;;;;5049656;28;20595;-79
2022/09/27 06:55:33;;;;;;;3.13;1.00;;;10.40;99.90;;;;;;5048582;28;20481;-79
2022/09/27 07:00:48;;;;;;;1.08;0.88;;;10.40;99.90;;;;;;5049550;28;20087;-80
2022/09/27 07:03:14;;;;;;;2.90;0.68;;;10.40;99.90;;;;;;5054400;28;20051;-80
2022/09/27 07:05:41;;;;;;;1.75;1.00;;;10.50;99.90;;;;;;5056102;28;20060;-80
2022/09/27 07:08:10;;;;;;;2.53;0.95;;;10.50;99.90;;;;;;5050967;28;20044;-79
2022/09/27 07:10:37;;;;;;;1.38;0.75;;;10.60;99.90;;;;;;5048916;28;20428;-79
2022/09/27 07:13:06;;;;;;;3.47;1.00;;;10.60;99.90;;;;;;5046528;28;20161;-78
2022/09/27 07:15:31;;;;;;;3.53;0.90;;;10.60;99.90;;;;;;5051679;28;20060;-79
2022/09/27 07:17:58;;;;;;;3.08;1.35;;;10.60;99.90;;;;;;5054187;28;20413;-81
2022/09/27 07:20:25;;;;;;;1.52;1.27;;;10.60;99.90;;;;;;5053434;28;20052;-80
2022/09/27 07:22:51;;;;;;;1.25;0.80;;;10.50;99.90;;;;;;5051479;28;20789;-81
2022/09/27 07:25:17;;;;;;;2.90;1.05;;;10.60;99.90;;;;;;5045931;28;20042;-81
2022/09/27 07:27:43;;;;;;;3.22;0.77;;;10.50;99.90;;;;;;5054640;28;20853;-82
2022/09/27 07:30:10;;;;;;;1.67;0.70;;;10.50;99.90;;;;;;5052740;28;20127;-80
2022/09/27 07:32:36;;;;;;;4.35;0.70;;;10.50;99.90;;;;;;5043309;28;20098;-79
2022/09/27 07:35:04;;;;;;;3.15;1.27;;;10.60;99.90;;;;;;5058322;28;20117;-81
2022/09/27 07:37:33;;;;;;;2.17;0.82;;;10.60;99.90;;;;;;5052138;28;20477;-79
2022/09/27 07:40:00;;;;;;;1.35;0.65;;;10.70;99.90;;;;;;5039014;28;20156;-78
2022/09/27 07:42:27;;;;;;;1.65;0.77;;;10.70;99.90;;;;;;5045206;28;20124;-83
2022/09/27 07:44:54;;;;;;;4.03;0.95;;;10.80;99.90;;;;;;5055271;28;20056;-83
2022/09/27 07:47:22;;;;;;;1.13;0.70;;;10.90;99.90;;;;;;5050443;28;20110;-85
2022/09/27 07:49:49;;;;;;;1.00;0.70;;;10.90;99.90;;;;;;5042536;28;20049;-83
2022/09/27 07:52:15;;;;;;;0.47;0.38;;;11.10;99.90;;;;;;5041306;28;20055;-83
2022/09/27 07:54:41;;;;;;;2.78;0.90;;;11.20;99.90;;;;;;5047522;28;20088;-83
2022/09/27 07:57:07;;;;;;;1.25;0.90;;;11.50;99.90;;;;;;5056883;28;20055;-83
2022/09/27 07:59:33;;;;;;;4.55;1.00;;;12.30;99.90;;;;;;5042690;28;20049;-83
2022/09/27 08:01:58;;;;;;;1.85;1.00;;;13.00;99.90;;;;;;5042928;28;20045;-82
2022/09/27 08:04:24;;;;;;;2.42;1.20;;;12.90;99.90;;;;;;5056180;28;20528;-84
2022/09/27 08:06:50;;;;;;;0.82;0.82;;;12.90;99.90;;;;;;5049234;28;20157;-86
2022/09/27 08:09:15;;;;;;;0.95;0.70;;;12.70;99.90;;;;;;5056020;28;20157;-80
2022/09/27 08:11:43;;;;;;;3.58;1.08;;;12.50;99.90;;;;;;5042038;28;20556;-79
2022/09/27 08:14:09;;;;;;;0.93;0.60;;;12.50;99.90;;;;;;5040322;28;20155;-77
2022/09/27 08:16:35;;;;;;;8.13;2.67;;;12.50;99.90;;;;;;5040438;28;20248;-79
2022/09/27 08:19:00;;;;;;;2.30;0.68;;;12.60;99.90;;;;;;5049256;28;20162;-79
2022/09/27 08:21:26;;;;;;;2.22;0.88;;;12.50;99.90;;;;;;5039228;28;20045;-79
2022/09/27 08:23:52;;;;;;;0.90;0.63;;;12.40;99.90;;;;;;5051352;28;20083;-79
2022/09/27 08:26:18;;;;;;;2.88;0.70;;;12.10;99.90;;;;;;5038873;28;20469;-77
2022/09/27 08:28:46;;;;;;;3.03;0.95;;;12.00;99.90;;;;;;5052725;28;20497;-78
2022/09/27 08:31:12;;;;;;;2.22;0.82;;;11.90;99.90;;;;;;5046116;28;20052;-79
2022/09/27 08:33:38;;;;;;;2.83;0.68;;;11.80;99.90;;;;;;5046347;28;20044;-82
2022/09/27 08:36:09;;;;;;;1.73;0.70;;;11.80;99.90;;;;;;5053855;28;20063;-83
2022/09/27 08:38:34;;;;;;;1.38;0.70;;;11.80;99.90;;;;;;5044808;28;20114;-83
2022/09/27 08:41:43;;;;;;;1.33;0.43;;;11.80;99.90;;;;;;5038461;28;20057;-82
2022/09/27 08:44:26;;;;;;;1.17;0.25;;;12.00;99.90;;;;;;5038991;28;20060;-81
2022/09/27 08:46:59;;;;;;;0.45;0.38;;;12.00;99.90;;;;;;5048249;28;20106;-81
2022/09/27 08:49:32;;;;;;;0.77;0.37;;;12.10;99.90;;;;;;5044887;28;20145;-82
2022/09/27 08:51:59;;;;;;;1.30;0.50;;;12.30;99.90;;;;;;5050011;28;20056;-80
2022/09/27 08:54:29;;;;;;;0.47;0.47;;;12.50;99.90;;;;;;5048700;28;20053;-77
2022/09/27 08:57:02;;;;;;;0.32;0.30;;;12.70;99.90;;;;;;5048965;28;20240;-78
2022/09/27 08:59:34;;;;;;;1.00;0.30;;;13.20;99.90;;;;;;5045092;28;20048;-77
2022/09/27 09:02:01;;;;;;;0.60;0.60;;;13.50;99.90;;;;;;5045093;28;20056;-77
2022/09/27 09:04:37;;;;;;;0.93;0.50;;;14.00;99.90;;;;;;5050501;28;20041;-78
2022/09/27 09:07:03;;;;;;;0.82;0.82;;;14.50;99.90;;;;;;5049302;28;20177;-78
2022/09/27 09:09:41;;;;;;;2.40;1.20;;;15.10;99.90;;;;;;5046802;28;20491;-78
2022/09/27 09:12:46;;;;;;;0.45;0.45;;;15.50;99.90;;;;;;5039114;28;20056;-80
2022/09/27 09:15:30;;;;;;;1.13;0.70;;;15.60;99.90;;;;;;5049564;28;20118;-80
2022/09/27 09:18:20;;;;;;;1.30;0.50;;;15.90;99.90;;;;;;5049301;28;20054;-80
2022/09/27 09:21:05;;;;;;;0.70;0.43;;;15.90;99.90;;;;;;5050925;28;20143;-75
2022/09/27 09:23:46;;;;;;;1.67;0.80;;;15.90;99.90;;;;;;5049004;28;20051;-81
2022/09/27 09:26:29;;;;;;;1.52;0.82;;;15.90;99.90;;;;;;5045929;28;20045;-79
2022/09/27 09:29:19;;;;;;;0.60;0.30;;;15.80;99.90;;;;;;5053276;28;20386;-80
2022/09/27 09:31:50;;;;;;;1.15;0.70;;;15.30;99.90;;;;;;5044408;28;20049;-79
2022/09/27 09:34:25;;;;;;;1.55;0.73;;;15.30;99.90;;;;;;5045287;28;20199;-81
2022/09/27 09:37:03;;;;;;;0.77;0.50;;;15.30;99.90;;;;;;5057314;28;20056;-79
2022/09/27 09:39:46;;;;;;;2.53;0.52;;;15.10;99.90;;;;;;5044399;28;20165;-79
2022/09/27 09:42:36;;;;;;;2.50;0.50;;;15.30;99.90;;;;;;5043101;28;20052;-80
2022/09/27 09:45:18;;;;;;;1.45;0.60;;;15.50;99.90;;;;;;5050244;28;20052;-80
2022/09/27 09:47:53;;;;;;;1.35;0.60;;;15.60;99.90;;;;;;5048128;28;20067;-78
2022/09/27 09:50:51;;;;;;;2.60;0.60;;;15.60;99.90;;;;;;5051234;28;20056;-78
2022/09/27 09:53:28;;;;;;;1.73;0.60;;;15.50;99.90;;;;;;5048231;28;20058;-78
2022/09/27 09:56:02;;;;;;;0.95;0.57;;;15.60;99.90;;;;;;5046091;28;20051;-78
2022/09/27 09:58:39;;;;;;;1.85;0.88;;;15.50;99.90;;;;;;5043956;28;20049;-78
2022/09/27 10:01:41;;;;;;;2.65;0.80;;;15.50;99.90;;;;;;5043310;28;20099;-79
2022/09/27 10:04:19;;;;;;;1.65;0.57;;;15.30;99.90;;;;;;5046888;28;20506;-79
2022/09/27 10:06:46;;;;;;;2.78;0.77;;;15.20;99.90;;;;;;5050428;28;20056;-78
2022/09/27 10:09:14;;;;;;;1.33;0.50;;;15.10;99.90;;;;;;5059669;28;20122;-79
2022/09/27 10:11:43;;;;;;;4.07;0.38;;;14.90;99.90;;;;;;5050620;28;20067;-78
2022/09/27 10:14:14;;;;;;;4.97;0.90;;;14.20;99.90;;;;;;5054897;28;20048;-76
2022/09/27 10:16:47;;;;;;;3.80;0.60;;;13.40;99.90;;;;;;5038366;28;20822;-76
2022/09/27 10:19:19;;;;;;;2.38;1.17;;;12.80;99.90;;;;;;5043698;28;20052;-73
2022/09/27 10:21:48;;;;;;;0.32;0.30;;;12.40;99.90;;;;;;5043859;28;20763;-74
2022/09/27 10:24:15;;;;;;;1.88;0.20;;;12.10;99.90;;;;;;5040875;28;20662;-74
2022/09/27 10:26:44;;;;;;;0.30;0.30;;;12.00;99.90;;;;;;5038170;28;20493;-75
2022/09/27 10:29:18;;;;;;;1.58;0.20;;;11.90;99.90;;;;;;5047461;28;20045;-76
2022/09/27 10:31:47;;;;;;;1.25;0.60;;;11.80;99.90;;;;;;5046526;28;20052;-75
2022/09/27 10:34:21;;;;;;;1.60;0.30;;;11.80;99.90;;;;;;5043277;28;20052;-76
2022/09/27 10:37:03;;;;;;;0.30;0.20;;;11.70;99.90;;;;;;5041910;28;20131;-75
2022/09/27 10:39:29;;;;;;;1.42;0.50;;;11.70;99.90;;;;;;5042122;28;20045;-76
2022/09/27 10:41:54;;;;;;;1.38;0.50;;;11.70;99.90;;;;;;5045359;28;20089;-78
2022/09/27 10:44:31;;;;;;;1.05;0.45;;;11.70;99.90;;;;;;5043957;28;20199;-77
2022/09/27 10:47:08;;;;;;;0.95;0.25;;;11.70;99.90;;;;;;5050384;28;20501;-77
2022/09/27 10:49:39;;;;;;;0.30;0.30;;;11.80;99.90;;;;;;5043756;28;20053;-77
2022/09/27 10:52:20;;;;;;;0.17;0.17;;;12.00;99.90;;;;;;5043183;28;20052;-78
2022/09/27 10:54:55;;;;;;;1.38;0.43;;;12.10;99.90;;;;;;5045870;28;20589;-77
2022/09/27 10:57:24;;;;;;;0.20;0.20;;;12.40;99.90;;;;;;5051880;28;20121;-78
2022/09/27 11:00:27;;;;;;;0.95;0.47;;;12.50;99.90;;;;;;5051118;28;20167;-79
2022/09/27 11:03:11;;;;;;;0.53;0.50;;;12.80;99.90;;;;;;5041036;28;20048;-80
2022/09/27 11:05:38;;;;;;;0.55;0.50;;;13.10;99.90;;;;;;5044968;28;20044;-79
2022/09/27 11:08:19;;;;;;;1.00;0.70;;;13.20;99.90;;;;;;5049800;28;20047;-79
2022/09/27 11:10:59;;;;;;;0.57;0.47;;;13.30;99.90;;;;;;5044487;28;20085;-80
2022/09/27 11:13:26;;;;;;;3.42;0.55;;;13.60;99.90;;;;;;5051043;28;20489;-77
2022/09/27 11:15:54;;;;;;;0.10;0.10;;;13.70;99.90;;;;;;5043319;28;20049;-77
2022/09/27 11:18:33;;;;;;;0.30;0.22;;;13.10;99.90;;;;;;5047637;28;20135;-78
2022/09/27 11:21:30;;;;;;;1.48;0.35;;;12.80;99.90;;;;;;5043435;28;20049;-79
2022/09/27 11:24:29;;;;;;;1.13;0.25;;;12.60;99.90;;;;;;5046542;28;20143;-79
2022/09/27 11:27:16;;;;;;;3.88;0.40;;;12.60;99.90;;;;;;5044081;28;20143;-77
2022/09/27 11:29:51;;;;;;;2.05;0.57;;;12.70;99.90;;;;;;5040352;28;20184;-74
2022/09/27 11:32:27;;;;;;;1.30;0.60;;;12.60;99.90;;;;;;5043650;28;20041;-75
2022/09/27 11:35:20;;;;;;;3.67;2.28;;;12.50;99.90;;;;;;5046926;28;20064;-75
2022/09/27 11:38:18;;;;;;;0.38;0.38;;;12.40;99.90;;;;;;5051424;28;20168;-78
2022/09/27 11:41:20;;;;;;;1.25;0.30;;;12.20;99.90;;;;;;5042916;28;20061;-78
2022/09/27 11:44:16;;;;;;;0.40;0.40;;;12.10;99.90;;;;;;5043566;28;20045;-77
2022/09/27 11:46:57;;;;;;;1.33;0.77;;;12.00;99.90;;;;;;5049336;28;20052;-76
2022/09/27 11:49:38;;;;;;;2.38;0.38;;;12.00;99.90;;;;;;5055475;28;20501;-75
2022/09/27 11:52:25;;;;;;;2.40;0.50;;;11.90;99.90;;;;;;5039965;28;20053;-76
2022/09/27 11:54:54;;;;;;;1.00;0.40;;;11.90;99.90;;;;;;5046875;28;20044;-76
2022/09/27 11:57:44;;;;;;;0.40;0.40;;;12.00;99.90;;;;;;5051387;28;20155;-77
2022/09/27 12:00:20;;;;;;;0.55;0.40;;;12.20;99.90;;;;;;5046934;28;20056;-77
2022/09/27 12:03:10;;;;;;;1.38;0.40;;;12.40;99.90;;;;;;5039783;28;20040;-78
2022/09/27 12:05:57;;;;;;;0.30;0.30;;;12.60;99.90;;;;;;5038867;28;20072;-77
2022/09/27 12:08:47;;;;;;;1.45;0.47;;;12.70;99.90;;;;;;5041112;28;20044;-77
2022/09/27 12:11:30;;;;;;;0.82;0.50;;;13.10;99.90;;;;;;5043635;28;20045;-77
2022/09/27 12:14:21;;;;;;;0.73;0.73;;;13.30;99.90;;;;;;5042022;28;20045;-78
2022/09/27 12:16:50;;;;;;;0.85;0.30;;;13.30;99.90;;;;;;5042895;28;20052;-77
2022/09/27 12:19:50;;;;;;;0.52;0.50;;;13.40;99.90;;;;;;5040131;28;20049;-77
2022/09/27 12:22:21;;;;;;;3.25;0.60;;;13.50;99.90;;;;;;5044906;28;20041;-77
2022/09/27 12:24:47;;;;;;;3.60;0.80;;;13.50;99.90;;;;;;5044997;28;20051;-78
2022/09/27 12:27:20;;;;;;;0.20;0.20;;;13.50;99.90;;;;;;5042585;28;20045;-79
2022/09/27 12:29:48;;;;;;;1.17;0.45;;;13.50;99.90;;;;;;5045901;28;20045;-78
2022/09/27 12:32:25;;;;;;;1.33;0.60;;;13.40;99.90;;;;;;5043801;28;20040;-79
2022/09/27 12:35:09;;;;;;;1.15;0.50;;;13.50;99.90;;;;;;5047822;28;20054;-79
2022/09/27 12:37:50;;;;;;;0.80;0.30;;;13.50;99.90;;;;;;5040215;28;20056;-79
2022/09/27 12:40:28;;;;;;;0.75;0.55;;;13.40;99.90;;;;;;5040107;28;20141;-78
2022/09/27 12:42:58;;;;;;;0.90;0.60;;;13.30;99.90;;;;;;5043215;28;20041;-77
2022/09/27 12:45:49;;;;;;;1.67;0.70;;;13.20;99.90;;;;;;5042115;28;20052;-78
2022/09/27 12:48:30;;;;;;;0.95;0.50;;;12.90;99.90;;;;;;5036873;28;20052;-78
2022/09/27 12:51:11;;;;;;;2.13;1.48;;;12.80;99.90;;;;;;5044276;28;20127;-78
2022/09/27 12:53:55;;;;;;;0.30;0.30;;;12.80;99.90;;;;;;5040450;28;20052;-79
2022/09/27 12:56:39;;;;;;;1.85;0.75;;;12.70;99.90;;;;;;5043845;28;20095;-78
2022/09/27 12:59:33;;;;;;;0.88;0.57;;;12.60;99.90;;;;;;5042594;28;20048;-79
2022/09/27 13:02:25;;;;;;;0.30;0.30;;;12.50;99.90;;;;;;5042060;28;20040;-77
2022/09/27 13:05:10;;;;;;;0.55;0.55;;;12.50;99.90;;;;;;5038095;28;20118;-78
2022/09/27 13:08:20;;;;;;;4.63;1.05;;;12.50;99.90;;;;;;5036984;28;20091;-75
2022/09/27 13:10:56;;;;;;;3.35;0.63;;;12.40;99.90;;;;;;5046798;28;20048;-77
2022/09/27 13:13:25;;;;;;;1.55;0.60;;;12.30;99.90;;;;;;5044237;28;20040;-77
2022/09/27 13:15:57;;;;;;;0.60;0.60;;;12.30;99.90;;;;;;5043520;28;20036;-77
2022/09/27 13:18:35;;;;;;;0.80;0.50;;;12.40;99.90;;;;;;5041927;28;20048;-77
2022/09/27 13:21:05;;;;;;;0.70;0.40;;;12.50;99.90;;;;;;5044152;28;20107;-80
2022/09/27 13:23:31;;;;;;;6.57;0.75;;;12.70;99.90;;;;;;5043302;28;20045;-78